Choose a state:
Most recent flow and stage for Oklahoma
(Stations highlighted in red are currently above flood stage)
USGS
station
ID
USGS station name NWS
flood
stage
(ft)
Most recent
stage
(ft)
Most recent
flow
(cfs)
Historical
peaks
(cfs)
Most recent
local
date/time
NWS
station
ID
07148400 Salt Fork Arkansas River nr Alva, OK 14.5 2.61 49.3 27,000 2022-01-21 00:30:00 AVAO2
07149520 Salt Fork Arkansas River at SH 11 nr Cherokee, OK   8.89 437 40,700 2022-01-21 00:00:00 CSFO2
07151000 Salt Fork Arkansas River at Tonkawa, OK 17 3.15 104 97,300 2022-01-20 23:00:00 TONO2
07152000 Chikaskia River near Blackwell, OK 29 2.25 84.5 100,000 2022-01-21 00:30:00 BLKO2
07152500 Arkansas River at Ralston, OK 16 4.48 1,360 211,000 2022-01-21 00:15:00 RLSO2
07153000 Black Bear Creek at Pawnee, OK 17 1.77 11.4 30,200 2022-01-21 00:30:00 PAWO2
07154500 Cimarron River near Kenton, OK 20 4.83 0.00 43,400 2022-01-21 00:15:00 KENO2
07156900 Cimarron River near Forgan, OK 5 1.84 15.1 69,000 2022-01-21 00:00:00 FRGO2
07157950 Cimarron River near Buffalo, OK 9 3.13 6.27 26,400 2022-01-21 00:30:00 BFFO2
07158000 Cimarron River near Waynoka, OK 8 5.63 32.5 94,500 2022-01-21 00:30:00 WANO2
07159100 Cimarron River near Dover, OK 17 9.44 72.8 123,000 2022-01-21 00:30:00 DOVO2
07159550 Lake Hefner at Oklahoma City, OK   1197.02

 

  2022-01-21 00:45:00 HEFO2
07159750 Cottonwood Creek near Seward, OK 30 3.76 54.4 43,500 2022-01-21 00:30:00 SWDO2
07160000 Cimarron River near Guthrie, OK 18 6.11 234 158,000 2022-01-21 00:30:00 GTRO2
07160280 Boggy Creek at Enid Ave at Enid, OK   1199.16

 

  2022-01-21 00:30:00 EBCO2
07160290 North Boggy Creek at Garriott Rd at Enid, OK   1199.22

 

  2022-01-21 00:00:00 ENBO2
07160300 Boggy Creek at 30th St at Enid, OK   1159.01

 

  2022-01-21 00:30:00 EGCO2
07160350 Skeleton Creek at Enid, OK   2.42 4.58 9,860 2022-01-21 00:00:00 ESCO2
07160500 Skeleton Creek near Lovell, OK   9.24 32.8 75,200 2022-01-21 00:30:00 LVLO2
07161450 Cimarron River near Ripley, OK 17 7.28 307 141,000 2022-01-21 00:00:00 RIPO2
07164500 Arkansas River at Tulsa, OK 18 1.77 2,190 307,000 2022-01-21 00:30:00 TLSO2
07164600 Joe Creek at 61st St at Tulsa, OK 8 0.55 5.30 12,700 2022-01-21 00:50:00 TJOO2
07165562 Haikey Creek at 101st St South at Tulsa, OK 16 4.14 1.08 7,100 2022-01-21 00:40:00 THCO2
07165565 Little Haikey Creek at 101st St South at Tulsa, OK   5.36 0.94 4,300 2022-01-21 00:50:00  
07165570 Arkansas River near Haskell, OK 19 2.35 387 286,000 2022-01-21 00:00:00 HSKO2
07171000 Verdigris River near Lenapah, OK 30 3.47 72.1 192,000 2022-01-21 00:00:00 LEPO2
07174400 Caney River above Coon Creek at Bartlesville, OK 13 3.01 21.4 94,500 2022-01-21 00:00:00 BVLO2
07174470 Caney River at Tuxedo Blvd at Bartlesville, OK   5.38

 

  2022-01-21 00:45:00  
07174618 Sand Creek Below Little Rock Creek near Okesa, OK   7.02

 

2022-01-21 00:00:00 OKEO2
07175500 Caney River near Ramona, OK 26 2.97 44.0 85,600 2022-01-20 23:45:00 RAMO2
07176000 Verdigris River near Claremore, OK 36 3.26 42.7 182,000 2022-01-21 00:30:00 CLRO2
07176321 Bird Creek at SH 99 at Pawhuska, OK   5.10

 

27,800 2022-01-21 00:45:00  
07176500 Bird Creek at Avant, OK 17 3.54 6.78 36,400 2022-01-21 00:30:00 AVTO2
07176950 Hominy Creek near Hominy, OK   5.77

 

27,200 2022-01-21 00:00:00  
07177500 Bird Creek near Sperry, OK 21 1.46 52.7 90,000 2022-01-21 00:00:00 SPEO2
07177650 Flat Rock Creek at Cincinnati Ave at Tulsa, OK   24.52 Eqp 8,290 2022-01-20 04:45:00  
07177800 Coal Creek at Tulsa, OK   4.95 3.02 6,010 2022-01-21 00:45:00  
07178000 Bird Creek near Owasso, OK 18 4.38 64.6 36,200 2022-01-21 00:00:00 OWSO2
07178200 Bird Ck at State Highway 266 near Catoosa, OK   3.81 113 36,300 2022-01-21 00:30:00  
07178452 Verdigris River near Catoosa, OK   32.70

 

2022-01-21 00:45:00 CTOO2
07178645 Verdigris River near Wagoner, OK   12.17

 

2022-01-21 00:00:00  
07185000 Neosho River near Commerce, OK 15 2.41 219 267,000 2022-01-21 00:30:00 COMO2
07185030 Elm Creek near Commerce, OK   6.49 0.01 4,990 2022-01-21 00:00:00  
07185080 Neosho River at Miami, OK   742.10

 

2022-01-21 00:45:00  
07185090 Tar Creek near Commerce, OK   8.21 2.62 6,660 2022-01-21 00:15:00  
07185095 Tar Creek at 22nd Street Bridge at Miami, OK   3.84 3.69 12,400 2022-01-21 00:15:00  
07188000 Spring River near Quapaw, OK 20 6.19 546 230,000 2022-01-21 00:00:00 QUAO2
07188005 Beaver Creek near Quapaw, OK   2.22 0.91 2,100 2022-01-21 00:10:00  
07189000 Elk River near Tiff City, Mo 15 3.75 396 137,000 2022-01-21 00:30:00 TIFM7
07189540 Cave Springs Branch near South West City, MO   4.39 2.17 4,330 2022-01-21 00:00:00  
07189542 Honey Creek near South West City, MO   4.12 19.1 19,300 2022-01-21 00:15:00  
07189700 Horse Creek at Afton, OK   5.00 0.48 2,690 2022-01-21 00:00:00  
07189710 Horse Creek at 540 Rd near Afton, OK   5.65 1.25   2022-01-21 00:30:00  
07190000 Lake O' the Cherokees at Langley, OK   741.99

 

  2022-01-21 00:00:00 PENO2
07190100 Neosho River (service road) near Langley, OK   12.21

 

2022-01-21 00:00:00  
07190500 Neosho River near Langley, OK   12.34 923 300,000 2022-01-21 00:15:00  
07191000 Big Cabin Creek near Big Cabin, OK   12.19 4.95 63,000 2022-01-21 00:30:00  
07191160 Spavinaw Creek near Maysville, AR   6.57 43.6 23,200 2022-01-21 00:30:00  
07191179 Spavinaw Creek near Cherokee City, AR   5.89 63.7 24,500 2022-01-21 00:15:00  
07191220 Spavinaw Creek near Sycamore, OK   4.60 80.9 39,800 2022-01-21 00:30:00  
071912213 Spavinaw Creek near Colcord, OK   7.71 81.4 30,400 2022-01-21 00:15:00 CCDO2
07191222 Beaty Creek near Jay, OK   5.61 34.3 26,700 2022-01-21 00:15:00 JBCO2
07191285 Lake Eucha near Eucha, OK   778.09

 

  2022-01-21 00:45:00 NNEO2
07191288 Spavinaw Creek near Eucha, OK   7.95 190 79,600 2022-01-21 00:45:00  
07191300 Spavinaw Lake at Spavinaw, OK   680.21

 

  2022-01-21 00:30:00 SPAO2
07191400 Lake Hudson near Locust Grove, OK   619.92

 

  2022-01-21 00:00:00 MFDO2
07191500 Neosho River near Chouteau, OK   7.21 1,290 400,000 2022-01-21 00:00:00  
07194500 Arkansas River near Muskogee, OK 28 18.38 -2,980 700,000 2022-01-21 00:00:00 MKGO2
07194555 Arkansas River at Gore, OK   60.03

 

2022-01-21 00:45:00  
07195495 Lake Frances at Pump Station near Watts, OK   910.20

 

  2022-01-21 00:30:00  
07195500 Illinois River near Watts, OK 13 6.50 Eqp 128,000 2022-01-21 00:30:00 WTTO2
07195855 Flint Creek near West Siloam Springs, OK   4.35 62.1 15,900 2022-01-21 00:30:00  
07195865 Sager Creek near West Siloam Springs, OK   5.73 8.61 5,020 2022-01-21 00:15:00  
07196000 Flint Creek near Kansas, OK 11 6.35 82.1 44,400 2022-01-21 00:30:00 KNSO2
07196090 Illinois River at Chewey, OK 12 4.64 589 124,000 2022-01-21 00:15:00 CWYO2
07196320 Illinois River near Moodys, OK   4.71

 

  2022-01-21 00:00:00  
07196500 Illinois River near Tahlequah, OK 11 5.80 724 150,000 2022-01-21 00:30:00 TALO2
07197000 Baron Fork at Eldon, OK 18 6.85 122 63,400 2022-01-21 00:30:00 ELDO2
07197360 Caney Creek near Barber, OK   4.82 34.9 13,100 2022-01-21 00:00:00  
07198000 Illinois River near Gore, OK 23 7.72 357 180,000 2022-01-21 00:30:00 GORO2
07228500 Canadian River at Bridgeport, OK 14 9.74 121 150,000 2022-01-21 00:30:00 BRIO2
07228940 Canadian River near Mustang, OK 12 11.00 156 73,500 2022-01-21 00:00:00 TUCO2
07229050 Canadian River at Norman, OK 94 87.07 223 49,700 2022-01-21 00:00:00 NRCO2
07229200 Canadian River at Purcell, OK 12 4.22 329 102,000 2022-01-21 00:30:00 PRCO2
07229300 Walnut Creek at Purcell, OK   4.22 33.8 67,700 2022-01-21 00:30:00 PRLO2
07229445 Stanley Draper Lake near Oklahoma City, OK   1184.27

 

  2022-01-21 00:30:00 LSDO2
07229900 Lake Thunderbird near Norman, OK   1037.87

 

  2022-01-21 00:00:00 NRMO2
07230000 Little River blw Lk Thunderbird nr Norman, OK   3.04 0.49 34,600 2022-01-21 00:00:00 NLRO2
07230500 Little River near Tecumseh, OK 11 3.81 5.05 60,000 2022-01-21 00:30:00 TCMO2
07231000 Little River near Sasakwa, OK 26 2.89 27.5 44,600 2022-01-21 00:30:00 SASO2
07231500 Canadian River at Calvin, OK 20 6.24 302 174,000 2022-01-21 00:00:00 CLVO2
07232470 Beaver River near Goodwell, OK 24 6.32

 

114 2022-01-21 00:30:00 GBRO2
07234000 Beaver River at Beaver, OK 9 2.17 0.05 70,000 2022-01-21 00:00:00 BVRO2
07235600 Wolf Creek nr Gage, OK   5.65 7.41 2,090 2022-01-21 00:30:00 GAWO2
07237500 North Canadian River at Woodward, OK 9 2.49 21.0 42,000 2022-01-21 00:00:00 WDGO2
07238000 North Canadian River near Seiling, OK 11 4.58 63.6 33,000 2022-01-21 00:00:00 SEIO2
07238500 Canton Lake near Canton, OK   1614.80

 

  2022-01-21 00:00:00 CNLO2
07239000 North Canadian River at Canton, OK   10.97

 

24,800 2022-01-21 00:00:00 CNOO2
07239300 North Canadian River blw Weavers Ck nr Watonga, OK 15 7.40 12.7 7,220 2022-01-21 00:30:00 WATO2
07239450 North Canadian River near Calumet, OK   3.64 26.6 23,900 2022-01-21 00:00:00 CLMO2
07239500 North Canadian River near El Reno, OK 17

 

Mnt 23,800 2021-10-01 01:00:00 ELNO2
07239700 North Canadian River near Yukon, OK 14 1.49 47.1 25,100 2022-01-21 00:30:00 YUKO2
07240000 Lake Hefner Canal near Oklahoma City, OK   5.93 59.9   2022-01-20 18:30:00  
07240200 North Canadian R at Hwy 66 at Oklahoma City, OK   1240.56

 

  2022-01-21 00:30:00  
07240500 Lake Overholser near Oklahoma City, OK   1239.99

 

  2022-01-21 00:00:00 OVRO2
07241000 North Canadian River blw Lk Overholser nr OKC, OK 24 3.58 3.01 135,000 2022-01-21 00:00:00 OLBO2
07241520 North Canadian River at Britton Rd at OKC, OK 17 5.48 38.1 38,100 2022-01-21 00:00:00 OKBO2
07241550 North Canadian River near Harrah, OK 14 3.51 179 27,200 2022-01-21 00:00:00 HRHO2
07241588 Wes Watkins Reservoir near McLoud, OK   1072.34

 

  2022-01-21 00:00:00 WWLO2
07241600 Shawnee Reservoir at Shawnee, OK   1072.72

 

  2022-01-21 00:00:00 SHLO2
07241780 Squirrel Creek at Shawnee, OK   2.52 0.07 2,530 2022-01-21 00:00:00 SSQO2
07241800 North Canadian River at Shawnee, OK   9.46 123 23,500 2022-01-21 00:30:00 SNCO2
07242000 North Canadian River near Wetumka, OK 24 5.63 208 66,000 2022-01-21 00:00:00 WETO2
07242380 Deep Fork at Warwick, OK   4.51 33.0 34,600 2022-01-21 00:00:00 WRWO2
07243500 Deep Fork near Beggs, OK 18 0.54 85.0 66,800 2022-01-21 00:15:00 BGSO2
07245000 Canadian River near Whitefield, OK   4.30 4,990 281,000 2022-01-21 00:30:00 WHTO2
07247015 Poteau River at Loving, OK   9.27 2.01 37,000 2022-01-21 00:30:00 LVNO2
07247250 Black Fork below Big Creek nr Page, OK   4.76 2.95 36,000 2022-01-21 00:00:00  
07247500 Fourche Maline near Red Oak, OK   2.52 8.88 41,500 2022-01-21 00:30:00  
07249413 Poteau River near Panama, OK 29 6.79 241 82,100 2022-01-21 00:30:00 PANO2
07249455 Arkansas River at Ft. Smith, Ar.   11.90 -4,540 587,000 2022-01-21 00:15:00  
07249800 Lee Creek at Short, OK   2.56 122 63,500 2022-01-21 00:15:00  
07249920 Little Lee Creek near Nicut, OK   1.08 34.7 27,800 2022-01-21 00:00:00  
07249985 Lee Creek near Short, OK   2.35 166 111,000 2022-01-21 00:30:00  
07250500 AR River at Van Buren, AR 22 19.47

 

850,000 2022-01-21 00:00:00 VBUA4
07300500 Salt Fork Red River at Mangum, OK   3.24 28.4 72,000 2022-01-21 00:45:00 MGMO2
07301110 Salt Fork Red River near Elmer, OK   5.63 13.2 44,900 2022-01-21 00:00:00 ESFO2
07301420 Sweetwater Creek near Sweetwater, OK   7.04 15.1 1,940 2022-01-21 00:00:00 SWTO2
07301500 North Fork Red River near Carter, OK 16 5.25 37.1 53,400 2022-01-21 00:00:00 CARO2
07302500 Lake Altus at Lugert, OK   1532.19

 

  2022-01-21 00:30:00 ALTO2
07302520 Lugert Drainage Ditch at Lugert, OK   0.19

 

  2022-01-21 00:00:00 LDDO2
07303000 North Fork Red River blw Altus Dam nr Lugert, OK   5.38 0.03 16,100 2022-01-21 00:45:00 LGTO2
07303400 Elm Fork of North Fork Red River nr Carl, OK   5.23 12.5 62,300 2022-01-21 00:00:00 CRLO2
07305000 North Fork Red River near Headrick, OK 14 9.27 987 76,500 2022-01-21 00:00:00 HEAO2
07307010 Otter Creek near Snyder, OK   5.82

 

5,240 2022-01-20 15:00:00 SYDO2
07307028 North Fork Red River near Tipton, OK   5.71 26.7 57,200 2022-01-21 00:30:00 TIPO2
07308990 Lake Ellsworth near Elgin, OK   1230.94

 

  2022-01-21 00:45:00 ELWO2
07309500 Lake Lawtonka near Lawton, OK   1339.47

 

  2022-01-21 00:30:00 LTLO2
07311000 East Cache Creek near Walters, OK 21 4.83 27.5 50,900 2022-01-21 00:30:00 WLTO2
07311415 Lake Frederick nr Frederick, OK   1196.78

 

  2022-01-21 00:30:00 FDLO2
07311500 Deep Red Creek near Randlett, OK 20 2.84 5.22 72,300 2022-01-20 22:30:00 RNDO2
07312920 Beaver Creek nr Hulen, OK   8.02

 

  2022-01-21 00:45:00 HUBO2
07313000 Little Beaver Creek near Duncan, OK   32.56

 

47,500 2022-01-20 22:30:00 DLBO2
07313585 Cow Creek nr Addington, OK   2.31

 

  2022-01-21 00:45:00 ADDO2
07315500 Red River near Terral, OK 22 6.24 186 236,000 2022-01-21 00:00:00 TRLO2
07315650 Red River nr Courtney, OK   11.52

 

  2022-01-21 00:30:00 COUO2
07315700 Mud Creek near Courtney, OK   7.29 0.75 64,300 2022-01-21 00:30:00 CORO2
07316000 Red River near Gainesville, TX 25 7.58 240 265,000 2022-01-21 00:00:00 GSVT2
07316500 Washita River near Cheyenne, OK 13.5 6.56 5.46 69,800 2022-01-21 00:00:00 CHYO2
07324200 Washita River near Hammon, OK   7.94 23.4 167,000 2022-01-21 00:45:00 HMMO2
07324300 Foss Reservoir near Foss, OK   1638.45

 

  2022-01-21 00:00:00 FOSO2
07324400 Washita River near Foss, OK   6.56 4.69 14,000 2022-01-21 00:00:00 FBFO2
07325000 Washita River near Clinton, OK 18 4.92 22.9 90,000 2022-01-21 00:30:00 CLIO2
07325500 Washita River at Carnegie, OK 25 3.51

 

50,000 2022-01-21 00:00:00 CAGO2
07325800 Cobb Creek near Eakly, OK   3.44 16.7 12,000 2022-01-21 00:30:00 EAKO2
07325840 Lake Creek near Sickles, OK   4.14 1.24 1,630 2022-01-21 00:45:00 HLCO2
07325850 Lake Creek near Eakly, OK   4.83 9.13 8,310 2022-01-21 00:00:00 EKCO2
07325860 Willow Creek near Albert, OK   2.25 4.98 12,000 2022-01-21 00:30:00 AWCO2
07325900 Fort Cobb Reservoir near Fort Cobb, OK   1341.86

 

  2022-01-21 00:00:00 FTCO2
07326000 Cobb Creek near Fort Cobb, OK   2.90 2.50 51,000 2022-01-21 00:00:00 FCCO2
07326500 Washita River at Anadarko, OK 19 7.06 155 52,800 2022-01-21 00:30:00 ANDO2
07327442 Little Washita River near Cyril, OK   10.41 2.48 3,120 2022-01-21 00:00:00 CYLO2
07327447 Little Washita River near Cement, OK   2.44 0.16 3,770 2022-01-21 00:45:00 CMTO2
07327550 Little Washita River East of Ninnekah, OK 20 6.89 27.0 9,920 2022-01-21 00:00:00 NKHO2
07328100 Washita River at Alex, OK 28 1.12 240 53,600 2022-01-21 00:00:00 ALXO2
07328180 North Criner Creek near Criner, OK   2.85 0.28 1,640 2022-01-21 00:15:00 CRNO2
07328500 Washita River near Pauls Valley, OK 29

 

190 43,600 2021-10-01 01:00:00 PLVO2
07329605 Lake Humphreys near Duncan, OK   1175.78

 

  2022-01-21 00:00:00 LHUO2
07329610 Lake Fuqua near Duncan, OK   1076.30

 

  2022-01-21 00:00:00 FUQO2
07329780 Honey Creek below Turner Falls near Davis, OK   1.33 0.02 8,270 2022-01-21 00:30:00 DVSO2
07329849 01S-03E-01 ABB 1 Antelope Spring at Sulphur, OK   2.75 0.41 11.7 2022-01-20 15:00:00  
073298507 Travertine Creek above U.S. 177 at Sulphur   5.05 3.27 876 2022-01-21 00:00:00 STCO2
07329852 Rock Creek at Sulphur, OK   5.80 5.54 17,000 2022-01-21 00:45:00 SRCO2
07331000 Washita River near Dickson, OK 27 7.65 375 126,000 2022-01-21 00:30:00 DURO2
07331185 Mill Creek near Sulphur, OK   3.87 0.00   2022-01-21 00:00:00 SMCO2
07331200 Mill Creek near Mill Creek, OK   5.84 0.93 4,010 2022-01-21 00:30:00 MCKO2
07331205 Mill Cr at Mouth of 3Mile Cr near Mill Cr , OK   5.12 0.92   2022-01-21 00:00:00 MICO2
07331290 Washita River near Tishomingo, OK   621.83

 

  2022-01-21 00:30:00 TWRO2
07331293 Pennington Creek North of Mill Creek, OK   1.10 0.00 526 2022-01-21 00:30:00 MPCO2
07331295 Pennington Creek East of Mill Creek, OK   2.31 1.62 2,510 2022-01-21 00:30:00 MCPO2
07331300 Pennington Creek near Reagan, OK   10.69 2.76 9,970 2022-01-21 00:30:00 RPCO2
07331383 Pennington Creek at Capitol Ave at Tishomingo, OK   0.82 8.20 9,360 2022-01-21 00:00:00 TPCO2
07331455 Lake Texoma at Cumberland Cut nr Cumberland, OK   615.68

 

  2022-01-21 00:30:00 CWRO2
07331600 Red Rv at Denison Dam nr Denison, TX   6.59 2,250 71,700 2022-01-21 00:00:00 DSTT2
07332305 Blue River West of Fittstown, OK   4.41 0.91   2022-01-21 00:00:00 FIBO2
07332307 Blue River near Franks, OK   3.64 0.00   2022-01-21 00:30:00 FKBO2
07332348 Blue River North of Connerville, OK   2.59 24.7 3,370 2022-01-21 00:30:00 CNBO2
07332389 Unnamed Spring at Blue River nr Connerville, OK   10.87 0.02   2022-01-21 00:45:00  
07332390 Blue River near Connerville, OK   5.63 27.4 23,000 2022-01-21 00:45:00 CNVO2
07332500 Blue River near Blue, OK 28 5.57 36.6 65,200 2022-01-21 00:30:00 BLUO2
07333010 Atoka Reservoir near Stringtown, OK   586.84

 

  2022-01-21 00:30:00 ATKO2
07333900 McGee Creek Reservoir near Farris, OK   572.91

 

  2022-01-21 00:15:00 MGCO2
07334000 Muddy Boggy Creek near Farris, OK 43 7.14 23.7 61,900 2022-01-21 00:30:00 FRSO2
07334238 Sheep Creek Spring near Fittstown, OK   5.28 2.26 11.6 2022-01-21 00:30:00  
07334428 Delaware Cr Blw Del Cr Site 9 RSVR nr Bromide, OK   5.58 5.08 315 2022-01-21 00:30:00 BDCO2
07334800 Clear Boggy Creek abv Caney Creek nr Caney, OK 26 9.47 22.6 36,200 2022-01-21 00:30:00 CANO2
07335300 Muddy Boggy Creek near Unger, OK   8.79 91.7 76,700 2022-01-21 00:00:00  
07335500 Red River at Arthur City, TX 27 4.16 776 400,000 2022-01-21 00:00:00 ARCT2
07335700 Kiamichi River near Big Cedar, OK   3.37 5.76 27,400 2022-01-21 00:30:00  
07335790 Kiamichi River near Clayton, OK 17 3.81 74.5 48,600 2022-01-21 00:00:00 CLTO2
07335840 Pine Creek at Eubanks, OK   5.41

 

  2022-01-21 00:15:00  
07336200 Kiamichi River near Antlers, OK 25 2.62 134 62,300 2022-01-21 00:30:00 ANTO2
07336820 Red River near De Kalb, TX 24 6.83 691 299,000 2022-01-21 00:00:00 DEKT2
07337900 Glover River near Glover, OK 16 3.43 58.5 98,600 2022-01-21 00:30:00 GLOO2
07338500 Little River blw Lukfata Creek, nr Idabel, OK 30 5.56 119 103,000 2022-01-21 00:30:00 IDBO2
07338750 Mountain Fork at Smithville, OK   7.19 102 65,200 2022-01-21 00:30:00  
07339000 Mountain Fork near Eagletown, OK 11 4.06 2,170 101,000 2022-01-21 00:30:00 EAGO2